createdAt,value
2023-03-01T00:01:42.690Z,69.30
2023-03-01T00:04:10.423Z,64.40
2023-03-01T00:06:38.449Z,61.00
2023-03-01T00:09:06.334Z,63.00
2023-03-01T00:11:58.968Z,58.40
2023-03-01T00:14:26.803Z,52.40
2023-03-01T00:16:54.670Z,50.20
2023-03-01T00:19:25.712Z,46.60
2023-03-01T00:21:53.502Z,48.50
2023-03-01T00:24:21.349Z,49.00
2023-03-01T00:26:49.178Z,50.00
2023-03-01T00:29:17.040Z,45.70
2023-03-01T00:31:44.943Z,48.20
2023-03-01T00:34:12.780Z,50.90
2023-03-01T00:36:40.988Z,64.70
2023-03-01T00:39:12.039Z,73.20
2023-03-01T00:41:41.120Z,67.40
2023-03-01T00:44:09.324Z,61.80
2023-03-01T00:46:37.344Z,56.20
2023-03-01T00:49:05.739Z,49.80
2023-03-01T00:51:34.026Z,43.70
2023-03-01T00:54:02.515Z,46.50
2023-03-01T00:56:31.261Z,46.10
2023-03-01T00:58:59.499Z,46.80
2023-03-01T01:01:30.692Z,51.60
2023-03-01T01:03:59.971Z,57.80
2023-03-01T01:06:30.070Z,59.10
2023-03-01T01:08:58.501Z,58.00
2023-03-01T01:11:28.064Z,56.30
2023-03-01T01:13:56.471Z,54.60
2023-03-01T01:16:25.914Z,54.20
2023-03-01T01:18:53.771Z,56.60
2023-03-01T01:21:23.829Z,57.80
2023-03-01T01:23:52.342Z,59.40
2023-03-01T01:26:21.883Z,60.00
2023-03-01T01:28:50.014Z,53.90
2023-03-01T01:31:18.753Z,52.90
2023-03-01T01:33:47.266Z,51.30
2023-03-01T01:36:15.107Z,57.70
2023-03-01T01:38:46.324Z,62.00
2023-03-01T01:41:14.417Z,61.10
2023-03-01T01:43:46.646Z,61.50
2023-03-01T01:46:17.620Z,59.80
2023-03-01T01:48:47.864Z,58.20
2023-03-01T01:51:19.503Z,54.30
2023-03-01T01:53:49.257Z,53.70
2023-03-01T01:56:18.148Z,52.20
2023-03-01T01:58:46.385Z,51.20
2023-03-01T02:01:14.336Z,49.80
2023-03-01T02:03:44.293Z,46.90
2023-03-01T02:06:14.597Z,46.90
2023-03-01T02:08:43.251Z,43.50
2023-03-01T02:11:11.470Z,43.80
2023-03-01T02:13:39.374Z,47.30
2023-03-01T02:16:10.448Z,45.50
2023-03-01T02:18:39.231Z,50.30
2023-03-01T02:21:18.487Z,50.80
2023-03-01T02:23:46.412Z,53.90
2023-03-01T02:26:25.426Z,54.30
2023-03-01T02:28:53.337Z,50.90
2023-03-01T02:31:40.238Z,51.60
2023-03-01T02:34:09.612Z,56.40
2023-03-01T02:36:48.654Z,54.30
2023-03-01T02:39:19.076Z,54.40
2023-03-01T02:41:49.051Z,55.20
2023-03-01T02:44:17.301Z,53.70
2023-03-01T02:46:46.818Z,53.00
2023-03-01T02:49:26.785Z,48.20
2023-03-01T02:52:00.584Z,49.10
2023-03-01T02:54:34.925Z,48.00
2023-03-01T02:57:02.911Z,45.80
2023-03-01T02:59:32.808Z,46.70
2023-03-01T03:02:01.673Z,47.00
2023-03-01T03:04:29.419Z,47.20
2023-03-01T03:06:57.266Z,43.60
2023-03-01T03:09:25.025Z,44.00
2023-03-01T03:11:52.843Z,41.60
2023-03-01T03:14:20.668Z,45.70
2023-03-01T03:16:50.230Z,44.40
2023-03-01T03:19:19.028Z,46.30
2023-03-01T03:21:47.165Z,74.80
2023-03-01T03:24:14.975Z,54.20
2023-03-01T03:26:42.868Z,44.50
2023-03-01T03:29:10.646Z,43.70
2023-03-01T03:31:38.407Z,44.50
2023-03-01T03:34:06.347Z,47.70
2023-03-01T03:36:34.284Z,47.40
2023-03-01T03:39:02.107Z,43.40
2023-03-01T03:41:29.979Z,43.80
2023-03-01T03:43:57.748Z,45.00
2023-03-01T03:46:26.395Z,43.50
2023-03-01T03:48:54.343Z,43.90
2023-03-01T03:51:23.815Z,42.30
2023-03-01T03:53:51.768Z,45.90
2023-03-01T03:56:19.527Z,46.20
2023-03-01T03:58:47.385Z,46.70
2023-03-01T04:01:15.414Z,45.20
2023-03-01T04:03:47.586Z,43.20
2023-03-01T04:06:15.813Z,44.60
2023-03-01T04:08:43.613Z,43.30
2023-03-01T04:11:27.700Z,45.10
2023-03-01T04:13:57.113Z,44.50
2023-03-01T04:16:25.567Z,47.00
2023-03-01T04:18:54.628Z,44.30
2023-03-01T04:21:22.811Z,46.10
2023-03-01T04:23:53.734Z,41.80
2023-03-01T04:26:22.102Z,43.70
2023-03-01T04:28:51.518Z,42.60
2023-03-01T04:31:22.341Z,44.80
2023-03-01T04:33:55.057Z,42.90
2023-03-01T04:36:24.403Z,41.50
2023-03-01T04:38:53.074Z,43.00
2023-03-01T04:41:22.545Z,46.30
2023-03-01T04:43:50.914Z,42.30
2023-03-01T04:46:19.959Z,42.40
2023-03-01T04:48:48.422Z,44.50
2023-03-01T04:51:17.073Z,47.90
2023-03-01T04:53:45.181Z,44.70
2023-03-01T04:56:14.907Z,46.10
2023-03-01T04:58:42.944Z,44.80
2023-03-01T05:01:16.391Z,47.20
2023-03-01T05:03:45.049Z,43.40
2023-03-01T05:06:12.937Z,43.80
2023-03-01T05:08:44.205Z,45.50
2023-03-01T05:11:12.356Z,46.90
2023-03-01T05:13:40.424Z,45.10
2023-03-01T05:16:12.529Z,45.00
2023-03-01T05:18:41.273Z,45.80
2023-03-01T05:21:10.560Z,45.10
2023-03-01T05:23:38.400Z,43.80
2023-03-01T05:26:09.342Z,44.60
2023-03-01T05:28:39.277Z,43.90
2023-03-01T05:31:13.342Z,45.00
2023-03-01T05:33:41.821Z,43.50
2023-03-01T05:36:10.763Z,44.00
2023-03-01T05:38:38.601Z,43.60
2023-03-01T05:41:06.456Z,45.20
2023-03-01T05:43:35.103Z,43.00
2023-03-01T05:46:02.954Z,43.70
2023-03-01T05:48:30.840Z,44.40
2023-03-01T05:51:01.157Z,44.90
2023-03-01T05:53:29.192Z,45.70
2023-03-01T05:55:56.978Z,46.30
2023-03-01T05:58:25.310Z,46.30
2023-03-01T06:00:55.161Z,48.10
2023-03-01T06:03:23.403Z,44.60
2023-03-01T06:05:56.453Z,45.90
2023-03-01T06:08:25.358Z,50.20
2023-03-01T06:10:53.200Z,49.80
2023-03-01T06:13:21.264Z,49.40
2023-03-01T06:15:49.244Z,47.70
2023-03-01T06:18:16.993Z,49.40
2023-03-01T06:20:44.741Z,49.20
2023-03-01T06:23:12.527Z,46.70
2023-03-01T06:25:40.305Z,52.00
2023-03-01T06:28:08.044Z,53.00
2023-03-01T06:30:36.226Z,49.40
2023-03-01T06:33:06.920Z,53.80
2023-03-01T06:35:34.811Z,55.60
2023-03-01T06:38:04.199Z,56.60
2023-03-01T06:40:32.466Z,58.30
2023-03-01T06:43:02.852Z,53.20
2023-03-01T06:45:30.765Z,55.90
2023-03-01T06:48:07.972Z,56.50
2023-03-01T06:50:36.389Z,58.90
2023-03-01T06:53:04.300Z,57.30
2023-03-01T06:55:32.672Z,59.70
2023-03-01T06:58:01.460Z,60.70
2023-03-01T07:00:29.904Z,63.00
2023-03-01T07:02:59.815Z,59.20
2023-03-01T07:05:28.490Z,59.30
2023-03-01T07:07:57.262Z,61.30
2023-03-01T07:10:25.190Z,59.60
2023-03-01T07:12:55.543Z,62.20
2023-03-01T07:15:23.328Z,62.10
2023-03-01T07:17:51.870Z,61.90
2023-03-01T07:20:22.211Z,60.10
2023-03-01T07:22:49.992Z,58.90
2023-03-01T07:25:17.795Z,56.70
2023-03-01T07:27:49.677Z,55.00
2023-03-01T07:30:17.799Z,53.40
2023-03-01T07:32:46.623Z,54.00
2023-03-01T07:35:15.964Z,54.70
2023-03-01T07:37:44.167Z,53.10
2023-03-01T07:40:12.383Z,52.90
2023-03-01T07:42:40.254Z,52.70
2023-03-01T07:45:08.205Z,51.20
2023-03-01T07:47:35.991Z,51.00
2023-03-01T07:50:04.965Z,51.50
2023-03-01T07:52:32.965Z,49.30
2023-03-01T07:55:00.821Z,50.20
2023-03-01T07:57:28.755Z,47.10
2023-03-01T07:59:56.648Z,46.90
2023-03-01T08:02:24.527Z,47.10
2023-03-01T08:04:52.608Z,48.40
2023-03-01T08:07:20.408Z,46.30
2023-03-01T08:09:48.393Z,50.50
2023-03-01T08:12:17.905Z,49.30
2023-03-01T08:14:45.971Z,47.10
2023-03-01T08:17:17.210Z,49.10
2023-03-01T08:19:45.058Z,45.60
2023-03-01T08:22:12.871Z,42.10
2023-03-01T08:24:40.642Z,36.30
2023-03-01T08:27:08.582Z,31.90
2023-03-01T08:29:36.589Z,33.80
2023-03-01T08:32:05.365Z,34.80
2023-03-01T08:34:33.339Z,35.40
2023-03-01T08:37:01.186Z,36.40
2023-03-01T08:39:29.215Z,37.40
2023-03-01T08:41:57.869Z,34.80
2023-03-01T08:44:25.816Z,35.10
2023-03-01T08:46:55.445Z,36.70
2023-03-01T08:49:23.345Z,35.60
2023-03-01T08:51:51.476Z,34.70
2023-03-01T08:54:21.021Z,35.20
2023-03-01T08:56:49.589Z,36.90
2023-03-01T08:59:18.353Z,34.80
2023-03-01T09:01:46.276Z,33.40
2023-03-01T09:04:15.528Z,33.20
2023-03-01T09:06:43.832Z,32.10
2023-03-01T09:09:15.980Z,31.20
2023-03-01T09:11:44.855Z,27.50
2023-03-01T09:14:13.476Z,26.70
2023-03-01T09:16:41.584Z,23.40
2023-03-01T09:19:09.784Z,24.20
2023-03-01T09:21:40.930Z,22.00
2023-03-01T09:24:15.820Z,20.20
2023-03-01T09:26:44.073Z,14.90
2023-03-01T09:29:11.871Z,11.30
2023-03-01T09:31:39.860Z,10.70
2023-03-01T09:34:08.003Z,8.90
2023-03-01T09:36:36.422Z,9.00
2023-03-01T09:39:06.928Z,8.80
2023-03-01T09:41:38.263Z,9.40
2023-03-01T09:44:19.901Z,7.90
2023-03-01T09:46:48.239Z,9.70
2023-03-01T09:49:21.115Z,7.90
2023-03-01T09:51:57.035Z,8.60
2023-03-01T09:54:24.848Z,7.80
2023-03-01T09:56:52.564Z,9.40
2023-03-01T09:59:27.079Z,7.40
2023-03-01T10:01:58.017Z,8.10
2023-03-01T10:04:26.311Z,8.40
2023-03-01T10:07:17.478Z,9.00
2023-03-01T10:09:46.386Z,8.80
2023-03-01T10:12:25.312Z,7.20
2023-03-01T10:15:19.410Z,7.60
2023-03-01T10:18:04.165Z,7.50
2023-03-01T10:20:43.178Z,5.40
2023-03-01T10:23:11.275Z,5.50
2023-03-01T10:25:57.841Z,6.70
2023-03-01T10:28:43.860Z,6.90
2023-03-01T10:31:16.079Z,6.20
2023-03-01T10:33:44.003Z,5.80
2023-03-01T10:36:11.882Z,5.80
2023-03-01T10:38:55.463Z,5.70
2023-03-01T10:41:26.753Z,5.80
2023-03-01T10:47:00.001Z,6.40
2023-03-01T10:49:27.777Z,6.50
2023-03-01T10:51:55.641Z,6.40
2023-03-01T10:54:29.032Z,6.20
2023-03-01T10:57:01.585Z,7.10
2023-03-01T10:59:37.066Z,6.40
2023-03-01T11:02:27.291Z,6.30
2023-03-01T11:06:27.400Z,6.50
2023-03-01T11:08:55.273Z,6.70
2023-03-01T11:11:26.372Z,6.30
2023-03-01T11:13:59.137Z,6.20
2023-03-01T11:16:27.188Z,7.50
2023-03-01T11:18:59.245Z,7.70
2023-03-01T11:21:28.163Z,7.00
2023-03-01T11:23:56.048Z,6.60
2023-03-01T11:26:24.521Z,7.50
2023-03-01T11:28:55.208Z,6.80
2023-03-01T11:31:24.556Z,7.00
2023-03-01T11:34:15.920Z,6.80
2023-03-01T11:36:59.489Z,6.50
2023-03-01T11:39:47.671Z,6.50
2023-03-01T11:42:26.216Z,6.60
2023-03-01T11:44:56.707Z,7.30
2023-03-01T11:47:58.023Z,6.60
2023-03-01T11:50:36.953Z,6.60
2023-03-01T11:53:07.691Z,6.00
2023-03-01T11:55:41.682Z,6.40
2023-03-01T11:58:16.613Z,7.10
2023-03-01T12:01:04.587Z,6.30
2023-03-01T12:03:39.016Z,6.60
2023-03-01T12:06:25.257Z,6.40
2023-03-01T12:08:56.127Z,7.10
2023-03-01T12:11:27.217Z,6.50
2023-03-01T12:14:18.664Z,6.40
2023-03-01T12:16:56.581Z,6.70
2023-03-01T12:19:33.688Z,6.20
2023-03-01T12:22:20.589Z,6.50
2023-03-01T12:25:00.643Z,6.50
2023-03-01T12:27:31.894Z,5.80
2023-03-01T12:30:18.839Z,5.90
2023-03-01T12:32:58.957Z,6.20
2023-03-01T12:35:34.060Z,5.60
2023-03-01T12:38:28.119Z,4.60
2023-03-01T12:41:06.486Z,5.30
2023-03-01T12:43:47.559Z,5.40
2023-03-01T12:46:26.614Z,5.10
2023-03-01T12:49:06.293Z,4.90
2023-03-01T12:51:36.322Z,6.20
2023-03-01T12:54:22.058Z,5.40
2023-03-01T12:56:53.566Z,5.40
2023-03-01T12:59:21.976Z,4.30
2023-03-01T13:01:57.108Z,4.10
2023-03-01T13:04:35.338Z,4.90
2023-03-01T13:07:18.091Z,5.00
2023-03-01T13:10:04.961Z,5.40
2023-03-01T13:12:53.309Z,5.30
2023-03-01T13:15:24.333Z,5.10
2023-03-01T13:17:57.261Z,5.00
2023-03-01T13:20:34.606Z,4.80
2023-03-01T13:23:08.595Z,4.80
2023-03-01T13:25:56.526Z,4.50
2023-03-01T13:28:36.649Z,4.60
2023-03-01T13:31:25.181Z,4.40
2023-03-01T13:33:56.369Z,4.10
2023-03-01T13:36:31.410Z,4.50
2023-03-01T13:39:00.844Z,4.20
2023-03-01T13:41:48.981Z,4.20
2023-03-01T13:44:25.713Z,4.20
2023-03-01T13:46:55.169Z,4.50
2023-03-01T13:49:24.698Z,3.80
2023-03-01T13:51:52.849Z,3.30
2023-03-01T13:54:27.604Z,3.90
2023-03-01T13:56:55.851Z,3.90
2023-03-01T13:59:23.902Z,3.90
2023-03-01T14:01:59.588Z,4.20
2023-03-01T14:04:28.026Z,3.70
2023-03-01T14:07:14.641Z,4.00
2023-03-01T14:09:43.715Z,4.00
2023-03-01T14:12:14.628Z,3.90
2023-03-01T14:14:47.616Z,4.00
2023-03-01T14:17:21.361Z,4.00
2023-03-01T14:19:55.562Z,3.70
2023-03-01T14:22:43.998Z,4.00
2023-03-01T14:25:21.051Z,4.30
2023-03-01T14:27:59.357Z,3.90
2023-03-01T14:30:56.897Z,4.40
2023-03-01T14:33:26.558Z,3.60
2023-03-01T14:35:57.619Z,3.80
2023-03-01T14:38:39.202Z,3.90
2023-03-01T14:41:19.017Z,4.40
2023-03-01T14:43:48.767Z,4.50
2023-03-01T14:46:22.802Z,4.50
2023-03-01T14:48:54.330Z,4.70
2023-03-01T14:51:22.452Z,4.70
2023-03-01T14:53:51.588Z,4.50
2023-03-01T14:56:20.462Z,4.60
2023-03-01T14:58:52.232Z,4.50
2023-03-01T15:01:20.992Z,5.30
2023-03-01T15:03:49.961Z,3.90
2023-03-01T15:06:22.991Z,4.90
2023-03-01T15:08:53.002Z,4.50
2023-03-01T15:11:24.001Z,4.90
2023-03-01T15:13:53.022Z,4.80
2023-03-01T15:16:23.958Z,4.30
2023-03-01T15:18:54.143Z,4.80
2023-03-01T15:21:30.816Z,6.10
2023-03-01T15:23:58.852Z,5.20
2023-03-01T15:26:31.904Z,4.50
2023-03-01T15:29:00.489Z,5.30
2023-03-01T15:31:32.636Z,5.80
2023-03-01T15:34:11.235Z,5.70
2023-03-01T15:36:42.384Z,5.40
2023-03-01T15:39:29.477Z,5.70
2023-03-01T15:41:57.649Z,6.10
2023-03-01T15:44:35.053Z,6.10
2023-03-01T15:47:25.516Z,5.20
2023-03-01T15:49:55.828Z,5.70
2023-03-01T15:52:32.689Z,6.50
2023-03-01T15:55:03.927Z,5.00
2023-03-01T15:57:31.692Z,5.90
2023-03-01T15:59:59.916Z,5.40
2023-03-01T16:02:27.947Z,5.70
2023-03-01T16:04:57.628Z,5.50
2023-03-01T16:07:28.065Z,5.50
2023-03-01T16:09:56.121Z,6.70
2023-03-01T16:12:25.242Z,6.00
2023-03-01T16:14:54.843Z,5.70
2023-03-01T16:17:27.116Z,6.40
2023-03-01T16:19:55.751Z,7.30
2023-03-01T16:22:26.357Z,7.10
2023-03-01T16:24:55.184Z,7.10
2023-03-01T16:27:23.477Z,6.90
2023-03-01T16:29:51.768Z,7.50
2023-03-01T16:32:21.809Z,7.80
2023-03-01T16:34:50.463Z,8.10
2023-03-01T16:37:20.332Z,8.10
2023-03-01T16:39:53.432Z,10.10
2023-03-01T16:42:21.838Z,8.90
2023-03-01T16:44:50.087Z,8.00
2023-03-01T16:47:18.378Z,10.10
2023-03-01T16:49:46.429Z,12.40
2023-03-01T16:52:14.523Z,12.00
2023-03-01T16:54:42.675Z,16.00
2023-03-01T16:57:11.028Z,18.60
2023-03-01T16:59:39.317Z,13.90
2023-03-01T17:02:12.047Z,8.60
2023-03-01T17:04:40.777Z,8.50
2023-03-01T17:07:08.920Z,9.10
2023-03-01T17:09:38.015Z,8.20
2023-03-01T17:12:06.245Z,9.00
2023-03-01T17:14:36.030Z,8.90
2023-03-01T17:17:04.028Z,9.10
2023-03-01T17:19:33.095Z,8.70
2023-03-01T17:22:01.609Z,9.50
2023-03-01T17:24:33.080Z,12.00
2023-03-01T17:27:02.027Z,25.90
2023-03-01T17:29:30.313Z,37.90
2023-03-01T17:31:58.783Z,23.30
2023-03-01T17:34:27.165Z,20.80
2023-03-01T17:36:55.220Z,18.00
2023-03-01T17:39:28.959Z,19.10
2023-03-01T17:41:58.119Z,21.10
2023-03-01T17:44:26.522Z,38.30
2023-03-01T17:46:54.816Z,40.60
2023-03-01T17:49:23.039Z,27.60
2023-03-01T17:51:51.418Z,15.80
2023-03-01T17:54:36.459Z,15.40
2023-03-01T17:57:04.478Z,17.30
2023-03-01T17:59:34.295Z,17.90
2023-03-01T18:02:06.861Z,18.90
2023-03-01T18:04:34.797Z,38.90
2023-03-01T18:07:02.856Z,43.10
2023-03-01T18:09:31.429Z,39.70
2023-03-01T18:11:59.690Z,29.10
2023-03-01T18:14:34.167Z,25.20
2023-03-01T18:17:04.651Z,26.20
2023-03-01T18:19:33.167Z,27.70
2023-03-01T18:22:01.365Z,27.50
2023-03-01T18:24:29.373Z,22.80
2023-03-01T18:26:57.186Z,21.10
2023-03-01T18:29:25.256Z,20.10
2023-03-01T18:31:53.597Z,19.00
2023-03-01T18:34:21.764Z,16.00
2023-03-01T18:37:08.118Z,16.60
2023-03-01T18:39:42.096Z,14.60
2023-03-01T18:42:11.642Z,13.50
2023-03-01T18:44:39.802Z,13.20
2023-03-01T18:47:09.092Z,15.00
2023-03-01T18:49:37.313Z,15.70
2023-03-01T18:52:05.432Z,17.40
2023-03-01T18:54:35.489Z,15.50
2023-03-01T18:57:03.904Z,16.10
2023-03-01T18:59:32.741Z,17.40
2023-03-01T19:02:01.388Z,16.20
2023-03-01T19:04:30.215Z,15.80
2023-03-01T19:06:58.474Z,16.70
2023-03-01T19:09:26.407Z,16.20
2023-03-01T19:11:59.000Z,16.40
2023-03-01T19:14:27.081Z,15.90
2023-03-01T19:16:55.566Z,15.70
2023-03-01T19:19:23.885Z,15.50
2023-03-01T19:22:04.922Z,15.10
2023-03-01T19:24:34.780Z,20.10
2023-03-01T19:27:02.785Z,20.90
2023-03-01T19:29:30.776Z,20.00
2023-03-01T19:31:58.939Z,18.40
2023-03-01T19:34:27.272Z,19.00
2023-03-01T19:36:55.499Z,20.40
2023-03-01T19:39:23.554Z,18.10
2023-03-01T19:41:52.568Z,19.20
2023-03-01T19:44:24.966Z,20.00
2023-03-01T19:46:53.817Z,19.10
2023-03-01T19:49:22.077Z,19.00
2023-03-01T19:51:49.976Z,19.00
2023-03-01T19:54:20.245Z,16.30
2023-03-01T19:56:48.291Z,18.60
2023-03-01T19:59:16.606Z,19.90
2023-03-01T20:01:44.425Z,23.40
2023-03-01T20:04:13.044Z,21.20
2023-03-01T20:06:41.716Z,21.90
2023-03-01T20:09:21.108Z,18.50
2023-03-01T20:11:50.944Z,18.80
2023-03-01T20:14:19.331Z,31.40
2023-03-01T20:16:47.704Z,29.20
2023-03-01T20:19:15.537Z,27.60
2023-03-01T20:21:43.446Z,38.10
2023-03-01T20:24:11.607Z,33.40
2023-03-01T20:26:41.059Z,28.70
2023-03-01T20:29:09.495Z,45.50
2023-03-01T20:31:38.708Z,55.10
2023-03-01T20:34:06.862Z,41.80
2023-03-01T20:36:35.770Z,31.90
2023-03-01T20:39:04.244Z,25.70
2023-03-01T20:41:32.170Z,23.70
2023-03-01T20:44:00.431Z,24.10
2023-03-01T20:46:32.596Z,33.70
2023-03-01T20:49:01.009Z,31.90
2023-03-01T20:51:29.196Z,26.40
2023-03-01T20:53:58.062Z,25.30
2023-03-01T20:56:27.201Z,23.10
2023-03-01T20:58:58.399Z,25.80
2023-03-01T21:01:27.507Z,24.70
2023-03-01T21:03:56.054Z,24.70
2023-03-01T21:06:24.366Z,23.00
2023-03-01T21:08:52.460Z,32.20
2023-03-01T21:11:24.841Z,31.90
2023-03-01T21:13:53.665Z,27.70
2023-03-01T21:16:22.106Z,26.70
2023-03-01T21:18:50.072Z,28.20
2023-03-01T21:21:19.150Z,27.40
2023-03-01T21:23:47.070Z,23.90
2023-03-01T21:26:22.364Z,23.80
2023-03-01T21:28:53.702Z,23.10
2023-03-01T21:31:23.123Z,22.00
2023-03-01T21:33:52.184Z,23.20
2023-03-01T21:36:21.048Z,25.80
2023-03-01T21:38:50.081Z,33.10
2023-03-01T21:41:22.346Z,36.00
2023-03-01T21:43:51.505Z,33.90
2023-03-01T21:46:20.743Z,34.50
2023-03-01T21:48:49.026Z,33.50
2023-03-01T21:51:17.905Z,32.70
2023-03-01T21:53:45.732Z,31.10
2023-03-01T21:56:21.114Z,30.90
2023-03-01T21:58:49.826Z,29.30
2023-03-01T22:01:19.538Z,29.00
2023-03-01T22:03:47.921Z,30.90
2023-03-01T22:06:19.881Z,32.40
2023-03-01T22:08:48.672Z,32.00
2023-03-01T22:11:18.480Z,33.00
2023-03-01T22:13:49.607Z,35.40
2023-03-01T22:16:22.047Z,33.30
2023-03-01T22:18:50.273Z,34.20
2023-03-01T22:21:18.440Z,33.10
2023-03-01T22:23:46.597Z,36.10
2023-03-01T22:26:25.208Z,36.70
2023-03-01T22:28:54.251Z,37.30
2023-03-01T22:31:22.107Z,36.90
2023-03-01T22:33:50.288Z,35.00
2023-03-01T22:36:18.410Z,36.50
2023-03-01T22:38:46.935Z,36.30
2023-03-01T22:41:14.771Z,40.80
2023-03-01T22:43:42.710Z,39.10
2023-03-01T22:46:16.348Z,38.80
2023-03-01T22:48:44.485Z,33.80
2023-03-01T22:51:17.101Z,33.40
2023-03-01T22:53:45.453Z,30.90
2023-03-01T22:56:16.936Z,30.40
2023-03-01T22:58:44.874Z,30.90
2023-03-01T23:01:14.776Z,29.60
2023-03-01T23:03:43.055Z,28.70
2023-03-01T23:06:10.908Z,28.10
2023-03-01T23:08:38.954Z,24.50
2023-03-01T23:11:11.839Z,25.30
2023-03-01T23:13:39.946Z,38.00
2023-03-01T23:16:07.978Z,48.40
2023-03-01T23:18:35.790Z,50.20
2023-03-01T23:21:16.233Z,47.30
2023-03-01T23:23:46.515Z,46.40
2023-03-01T23:26:15.420Z,44.40
2023-03-01T23:28:43.289Z,44.40
2023-03-01T23:31:13.866Z,44.60
2023-03-01T23:33:44.563Z,45.40
2023-03-01T23:36:20.283Z,46.20
2023-03-01T23:38:49.014Z,46.50
2023-03-01T23:41:21.299Z,46.50
2023-03-01T23:43:50.200Z,47.60
2023-03-01T23:46:19.199Z,44.50
2023-03-01T23:48:47.729Z,42.60
2023-03-01T23:51:16.133Z,43.90
2023-03-01T23:53:54.868Z,43.40
2023-03-01T23:56:27.858Z,41.70
2023-03-01T23:58:56.639Z,44.30
